createdAt,value
2022-11-16T00:02:13.090Z,3.25
2022-11-16T00:04:39.541Z,4.40
2022-11-16T00:07:06.238Z,3.97
2022-11-16T00:09:33.359Z,4.68
2022-11-16T00:12:05.202Z,3.88
2022-11-16T00:14:34.246Z,3.72
2022-11-16T00:17:01.142Z,3.78
2022-11-16T00:19:28.228Z,4.30
2022-11-16T00:21:55.357Z,4.70
2022-11-16T00:24:23.264Z,4.63
2022-11-16T00:26:50.061Z,3.55
2022-11-16T00:29:19.678Z,4.10
2022-11-16T00:31:46.667Z,4.68
2022-11-16T00:34:13.576Z,3.17
2022-11-16T00:36:40.029Z,4.47
2022-11-16T00:39:06.446Z,3.65
2022-11-16T00:41:32.862Z,4.20
2022-11-16T00:43:59.311Z,4.13
2022-11-16T00:46:25.707Z,4.78
2022-11-16T00:48:52.103Z,4.32
2022-11-16T00:51:18.513Z,5.15
2022-11-16T00:53:44.903Z,6.10
2022-11-16T00:56:11.380Z,4.60
2022-11-16T00:58:37.780Z,4.90
2022-11-16T01:01:06.925Z,4.80
2022-11-16T01:03:34.490Z,5.38
2022-11-16T01:06:02.710Z,6.45
2022-11-16T01:08:29.099Z,4.78
2022-11-16T01:10:55.600Z,4.97
2022-11-16T01:13:22.035Z,4.97
2022-11-16T01:15:48.716Z,4.30
2022-11-16T01:18:15.198Z,5.00
2022-11-16T01:20:41.688Z,8.15
2022-11-16T01:23:08.077Z,6.63
2022-11-16T01:25:34.594Z,8.30
2022-11-16T01:28:01.022Z,5.45
2022-11-16T01:30:27.595Z,6.72
2022-11-16T01:32:53.970Z,5.57
2022-11-16T01:35:20.736Z,4.80
2022-11-16T01:37:47.132Z,6.70
2022-11-16T01:40:14.188Z,6.05
2022-11-16T01:42:40.962Z,6.00
2022-11-16T01:45:22.210Z,5.78
2022-11-16T01:47:48.719Z,6.28
2022-11-16T01:50:17.158Z,5.75
2022-11-16T01:52:52.887Z,8.75
2022-11-16T01:55:19.893Z,8.38
2022-11-16T01:57:47.251Z,6.60
2022-11-16T02:00:14.789Z,6.63
2022-11-16T02:02:41.681Z,6.43
2022-11-16T02:05:09.376Z,7.63
2022-11-16T02:08:28.878Z,7.55
2022-11-16T02:11:29.573Z,7.25
2022-11-16T02:14:27.319Z,7.03
2022-11-16T02:17:05.479Z,8.13
2022-11-16T02:20:00.461Z,6.80
2022-11-16T02:22:30.112Z,6.47
2022-11-16T02:25:06.702Z,9.52
2022-11-16T02:28:04.125Z,7.05
2022-11-16T02:30:30.892Z,9.73
2022-11-16T02:33:02.769Z,8.65
2022-11-16T02:35:33.638Z,7.75
2022-11-16T02:38:07.964Z,8.40
2022-11-16T02:40:35.609Z,8.93
2022-11-16T02:43:07.888Z,8.30
2022-11-16T02:45:37.253Z,7.35
2022-11-16T02:48:08.794Z,7.65
2022-11-16T02:50:35.681Z,8.55
2022-11-16T02:53:02.678Z,7.85
2022-11-16T02:55:30.316Z,6.20
2022-11-16T02:58:02.069Z,7.53
2022-11-16T03:00:37.863Z,7.30
2022-11-16T03:03:28.464Z,6.88
2022-11-16T03:06:04.133Z,6.38
2022-11-16T03:08:33.660Z,8.50
2022-11-16T03:11:27.516Z,6.80
2022-11-16T03:14:04.063Z,5.60
2022-11-16T03:16:34.914Z,6.72
2022-11-16T03:19:05.603Z,6.85
2022-11-16T03:21:40.085Z,7.88
2022-11-16T03:24:07.325Z,6.55
2022-11-16T03:26:50.953Z,6.93
2022-11-16T03:29:23.896Z,8.88
2022-11-16T03:31:52.852Z,7.70
2022-11-16T03:34:20.754Z,7.32
2022-11-16T03:36:48.769Z,7.45
2022-11-16T03:39:20.572Z,7.45
2022-11-16T03:41:47.791Z,7.13
2022-11-16T03:44:15.494Z,9.85
2022-11-16T03:46:43.247Z,8.85
2022-11-16T03:49:09.727Z,7.93
2022-11-16T03:51:36.444Z,8.52
2022-11-16T03:54:03.121Z,9.52
2022-11-16T03:56:29.642Z,6.85
2022-11-16T03:58:56.216Z,9.18
2022-11-16T04:01:22.889Z,9.65
2022-11-16T04:03:49.366Z,7.07
2022-11-16T04:06:34.701Z,8.52
2022-11-16T04:09:19.507Z,7.13
2022-11-16T04:12:04.287Z,8.43
2022-11-16T04:14:49.104Z,6.75
2022-11-16T04:17:36.403Z,9.70
2022-11-16T04:20:22.340Z,7.82
2022-11-16T04:23:21.545Z,7.82
2022-11-16T04:25:50.037Z,9.40
2022-11-16T04:28:17.954Z,9.95
2022-11-16T04:31:07.654Z,8.50
2022-11-16T04:33:52.629Z,9.30
2022-11-16T04:36:38.023Z,8.18
2022-11-16T04:39:04.589Z,9.15
2022-11-16T04:41:50.552Z,8.35
2022-11-16T04:44:17.309Z,8.30
2022-11-16T04:47:02.265Z,8.65
2022-11-16T04:49:28.670Z,9.48
2022-11-16T04:51:55.180Z,10.38
2022-11-16T04:54:21.702Z,9.45
2022-11-16T04:56:48.177Z,11.40
2022-11-16T04:59:15.391Z,8.27
2022-11-16T05:02:00.450Z,10.35
2022-11-16T05:04:26.950Z,10.23
2022-11-16T05:06:53.518Z,11.23
2022-11-16T05:09:19.995Z,12.18
2022-11-16T05:11:46.538Z,10.40
2022-11-16T05:14:13.047Z,13.02
2022-11-16T05:16:39.563Z,10.98
2022-11-16T05:19:24.608Z,13.43
2022-11-16T05:21:51.163Z,11.60
2022-11-16T05:24:35.777Z,10.05
2022-11-16T05:27:07.102Z,10.77
2022-11-16T05:29:34.318Z,10.55
2022-11-16T05:32:01.143Z,9.98
2022-11-16T05:34:27.858Z,12.38
2022-11-16T05:36:54.649Z,11.45
2022-11-16T05:39:21.157Z,10.80
2022-11-16T05:41:48.082Z,13.07
2022-11-16T05:44:15.518Z,11.88
2022-11-16T05:46:42.577Z,10.57
2022-11-16T05:49:09.879Z,11.55
2022-11-16T05:51:36.877Z,13.20
2022-11-16T05:54:03.964Z,10.35
2022-11-16T05:56:31.202Z,11.85
2022-11-16T05:58:58.253Z,14.50
2022-11-16T06:01:25.161Z,13.70
2022-11-16T06:03:52.119Z,12.20
2022-11-16T06:06:19.911Z,14.93
2022-11-16T06:08:46.655Z,12.27
2022-11-16T06:11:14.173Z,12.25
2022-11-16T06:13:40.618Z,13.25
2022-11-16T06:16:07.497Z,13.30
2022-11-16T06:18:38.328Z,13.45
2022-11-16T06:21:05.063Z,12.82
2022-11-16T06:23:31.512Z,11.93
2022-11-16T06:25:57.946Z,12.15
2022-11-16T06:28:24.667Z,12.88
2022-11-16T06:30:51.247Z,15.60
2022-11-16T06:33:18.281Z,15.43
2022-11-16T06:35:45.257Z,13.27
2022-11-16T06:38:18.293Z,15.75
2022-11-16T06:40:46.218Z,13.55
2022-11-16T06:43:12.610Z,15.20
2022-11-16T06:45:39.287Z,13.32
2022-11-16T06:48:05.808Z,12.18
2022-11-16T06:50:32.229Z,12.80
2022-11-16T06:53:00.800Z,14.65
2022-11-16T06:55:28.279Z,14.25
2022-11-16T06:57:54.823Z,14.00
2022-11-16T07:00:21.607Z,13.27
2022-11-16T07:02:48.020Z,13.32
2022-11-16T07:05:14.498Z,13.25
2022-11-16T07:07:41.030Z,15.15
2022-11-16T07:10:07.849Z,12.35
2022-11-16T07:12:34.285Z,14.63
2022-11-16T07:15:00.748Z,13.50
2022-11-16T07:17:27.151Z,14.82
2022-11-16T07:19:53.580Z,15.63
2022-11-16T07:22:20.020Z,17.38
2022-11-16T07:24:46.472Z,14.73
2022-11-16T07:27:13.497Z,14.00
2022-11-16T07:29:39.872Z,13.13
2022-11-16T07:32:06.352Z,13.90
2022-11-16T07:34:32.781Z,15.52
2022-11-16T07:36:59.618Z,14.40
2022-11-16T07:39:26.105Z,13.50
2022-11-16T07:41:53.535Z,15.10
2022-11-16T07:44:20.567Z,13.90
2022-11-16T07:46:48.467Z,13.00
2022-11-16T07:49:16.795Z,13.20
2022-11-16T07:51:43.659Z,13.05
2022-11-16T07:54:14.065Z,14.23
2022-11-16T07:56:40.577Z,11.75
2022-11-16T07:59:07.118Z,12.55
2022-11-16T08:01:33.666Z,13.05
2022-11-16T08:04:01.811Z,10.95
2022-11-16T08:06:30.045Z,11.27
2022-11-16T08:08:58.991Z,12.30
2022-11-16T08:11:26.635Z,11.88
2022-11-16T08:13:53.178Z,12.45
2022-11-16T08:16:21.259Z,12.93
2022-11-16T08:18:48.138Z,12.38
2022-11-16T08:21:16.318Z,12.27
2022-11-16T08:23:44.566Z,14.30
2022-11-16T08:26:17.033Z,13.40
2022-11-16T08:28:45.844Z,12.35
2022-11-16T08:31:15.134Z,14.38
2022-11-16T08:33:41.617Z,12.52
2022-11-16T08:36:13.939Z,15.52
2022-11-16T08:38:40.771Z,13.68
2022-11-16T08:41:07.776Z,15.23
2022-11-16T08:43:34.308Z,15.20
2022-11-16T08:46:01.439Z,13.57
2022-11-16T08:48:29.514Z,12.35
2022-11-16T08:51:16.982Z,17.60
2022-11-16T08:53:44.450Z,13.60
2022-11-16T08:56:13.202Z,13.95
2022-11-16T08:58:42.319Z,13.60
2022-11-16T09:01:16.511Z,11.63
2022-11-16T09:03:43.369Z,14.02
2022-11-16T09:06:10.458Z,14.18
2022-11-16T09:08:38.400Z,13.05
2022-11-16T09:11:06.244Z,12.60
2022-11-16T09:13:32.843Z,12.95
2022-11-16T09:16:00.107Z,14.32
2022-11-16T09:18:27.487Z,14.48
2022-11-16T09:20:53.995Z,13.73
2022-11-16T09:23:25.040Z,16.40
2022-11-16T09:25:52.005Z,15.33
2022-11-16T09:28:21.494Z,14.18
2022-11-16T09:30:50.170Z,12.48
2022-11-16T09:33:17.104Z,13.90
2022-11-16T09:35:43.577Z,14.60
2022-11-16T09:38:10.100Z,16.00
2022-11-16T09:40:38.231Z,14.45
2022-11-16T09:43:24.033Z,13.40
2022-11-16T09:46:28.249Z,13.23
2022-11-16T09:48:58.263Z,13.10
2022-11-16T09:51:26.747Z,11.95
2022-11-16T09:53:58.397Z,12.73
2022-11-16T09:56:26.032Z,11.10
2022-11-16T09:58:58.519Z,11.05
2022-11-16T10:04:09.137Z,12.75
2022-11-16T10:06:53.023Z,10.80
2022-11-16T10:09:19.900Z,12.43
2022-11-16T10:12:01.115Z,11.07
2022-11-16T10:14:51.972Z,11.88
2022-11-16T10:17:38.657Z,10.70
2022-11-16T10:20:30.510Z,10.32
2022-11-16T10:23:19.630Z,11.93
2022-11-16T10:25:48.581Z,13.18
2022-11-16T10:28:24.130Z,10.98
2022-11-16T10:31:19.507Z,11.77
2022-11-16T10:33:47.061Z,9.25
2022-11-16T10:36:15.227Z,10.25
2022-11-16T10:38:42.380Z,9.85
2022-11-16T10:41:19.399Z,10.48
2022-11-16T10:43:46.245Z,10.93
2022-11-16T10:46:22.898Z,11.27
2022-11-16T10:49:02.275Z,9.82
2022-11-16T10:51:28.724Z,10.07
2022-11-16T10:53:55.981Z,9.77
2022-11-16T10:56:37.180Z,11.75
2022-11-16T10:59:12.343Z,12.52
2022-11-16T11:01:51.309Z,9.25
2022-11-16T11:04:28.818Z,9.20
2022-11-16T11:06:57.281Z,11.43
2022-11-16T11:09:31.069Z,9.73
2022-11-16T11:12:39.619Z,11.45
2022-11-16T11:15:12.060Z,9.93
2022-11-16T11:17:43.081Z,8.88
2022-11-16T11:20:16.948Z,8.65
2022-11-16T11:22:52.658Z,10.30
2022-11-16T11:25:24.353Z,10.20
2022-11-16T11:27:53.191Z,9.40
2022-11-16T11:30:21.127Z,10.63
2022-11-16T11:32:48.134Z,9.68
2022-11-16T11:35:30.192Z,11.73
2022-11-16T11:38:03.378Z,10.75
2022-11-16T11:40:33.752Z,9.63
2022-11-16T11:43:02.660Z,9.73
2022-11-16T11:45:40.999Z,12.70
2022-11-16T11:48:19.159Z,11.48
2022-11-16T11:50:52.808Z,13.00
2022-11-16T11:53:41.054Z,12.20
2022-11-16T11:56:10.481Z,10.73
2022-11-16T11:58:39.280Z,13.85
2022-11-16T12:01:29.782Z,15.57
2022-11-16T12:04:08.269Z,12.32
2022-11-16T12:07:07.661Z,14.55
2022-11-16T12:09:47.842Z,16.00
2022-11-16T12:12:34.813Z,14.07
2022-11-16T12:15:26.026Z,11.05
2022-11-16T12:18:10.784Z,14.82
2022-11-16T12:21:04.194Z,13.73
2022-11-16T12:24:09.258Z,10.32
2022-11-16T12:26:35.571Z,12.07
2022-11-16T12:29:08.374Z,8.80
2022-11-16T12:31:53.395Z,7.78
2022-11-16T12:34:52.532Z,9.07
2022-11-16T12:37:39.295Z,9.45
2022-11-16T12:40:09.390Z,9.10
2022-11-16T12:42:49.476Z,6.22
2022-11-16T12:45:32.792Z,8.93
2022-11-16T12:48:08.272Z,7.22
2022-11-16T12:50:51.823Z,10.00
2022-11-16T12:53:21.081Z,6.70
2022-11-16T12:55:57.326Z,7.68
2022-11-16T12:58:41.755Z,5.40
2022-11-16T13:01:16.708Z,6.05
2022-11-16T13:03:52.889Z,6.47
2022-11-16T13:06:27.892Z,10.55
2022-11-16T13:09:14.474Z,6.13
2022-11-16T13:11:44.534Z,6.18
2022-11-16T13:14:14.502Z,8.90
2022-11-16T13:16:40.982Z,7.25
2022-11-16T13:19:10.517Z,9.00
2022-11-16T13:21:50.258Z,7.97
2022-11-16T13:24:17.413Z,4.72
2022-11-16T13:26:57.149Z,8.85
2022-11-16T13:29:40.475Z,7.00
2022-11-16T13:32:33.093Z,6.88
2022-11-16T13:35:00.175Z,9.43
2022-11-16T13:37:38.823Z,8.05
2022-11-16T13:40:05.242Z,11.13
2022-11-16T13:42:33.729Z,7.25
2022-11-16T13:45:19.625Z,11.52
2022-11-16T13:47:50.806Z,7.43
2022-11-16T13:50:19.228Z,8.82
2022-11-16T13:53:57.528Z,6.97
2022-11-16T13:55:43.784Z,9.30
2022-11-16T13:58:12.955Z,10.32
2022-11-16T14:00:40.198Z,9.55
2022-11-16T14:03:15.777Z,6.82
2022-11-16T14:05:52.353Z,6.25
2022-11-16T14:08:24.894Z,7.72
2022-11-16T14:13:30.041Z,8.60
2022-11-16T14:16:14.724Z,7.63
2022-11-16T14:18:44.787Z,6.63
2022-11-16T14:21:14.026Z,6.63
2022-11-16T14:24:02.927Z,5.88
2022-11-16T14:26:43.256Z,7.55
2022-11-16T14:29:16.758Z,7.20
2022-11-16T14:31:52.308Z,8.93
2022-11-16T14:34:22.494Z,8.65
2022-11-16T14:36:49.558Z,6.15
2022-11-16T14:39:22.768Z,7.25
2022-11-16T14:41:49.363Z,6.50
2022-11-16T14:44:20.127Z,4.55
2022-11-16T14:46:46.610Z,5.55
2022-11-16T14:49:16.030Z,7.93
2022-11-16T14:51:45.315Z,6.18
2022-11-16T14:54:19.855Z,5.97
2022-11-16T14:56:57.624Z,6.88
2022-11-16T14:59:24.314Z,7.93
2022-11-16T15:01:50.830Z,9.27
2022-11-16T15:04:17.786Z,8.35
2022-11-16T15:06:49.921Z,9.15
2022-11-16T15:09:27.238Z,5.10
2022-11-16T15:12:12.898Z,10.15
2022-11-16T15:14:48.578Z,7.65
2022-11-16T15:17:18.000Z,8.02
2022-11-16T15:19:53.405Z,6.35
2022-11-16T15:22:20.011Z,10.38
2022-11-16T15:24:54.301Z,5.95
2022-11-16T15:27:42.414Z,8.20
2022-11-16T15:30:18.598Z,7.63
2022-11-16T15:32:47.033Z,10.43
2022-11-16T15:35:34.428Z,8.38
2022-11-16T15:38:02.525Z,8.95
2022-11-16T15:40:29.560Z,8.00
2022-11-16T15:42:58.325Z,6.75
2022-11-16T15:45:25.697Z,7.18
2022-11-16T15:47:53.785Z,11.90
2022-11-16T15:50:23.161Z,13.27
2022-11-16T15:52:56.473Z,9.90
2022-11-16T15:55:32.028Z,9.05
2022-11-16T15:58:07.550Z,10.73
2022-11-16T16:00:36.113Z,8.82
2022-11-16T16:03:06.137Z,8.88
2022-11-16T16:05:40.960Z,6.50
2022-11-16T16:08:27.622Z,6.63
2022-11-16T16:11:33.025Z,5.90
2022-11-16T16:14:02.031Z,7.95
2022-11-16T16:16:32.605Z,5.18
2022-11-16T16:19:05.104Z,6.35
2022-11-16T16:21:43.333Z,7.18
2022-11-16T16:24:41.219Z,6.38
2022-11-16T16:27:11.893Z,9.65
2022-11-16T16:29:38.328Z,8.50
2022-11-16T16:32:05.083Z,9.27
2022-11-16T16:34:31.504Z,8.13
2022-11-16T16:36:57.928Z,7.47
2022-11-16T16:39:24.307Z,11.65
2022-11-16T16:41:50.782Z,10.43
2022-11-16T16:44:17.270Z,11.27
2022-11-16T16:46:43.642Z,9.23
2022-11-16T16:49:10.381Z,12.27
2022-11-16T16:51:36.792Z,14.13
2022-11-16T16:54:03.300Z,12.82
2022-11-16T16:56:29.709Z,14.02
2022-11-16T16:58:56.135Z,12.10
2022-11-16T17:01:22.601Z,17.52
2022-11-16T17:03:49.090Z,12.52
2022-11-16T17:06:15.480Z,13.65
2022-11-16T17:08:41.877Z,18.02
2022-11-16T17:11:08.956Z,13.70
2022-11-16T17:13:35.772Z,15.00
2022-11-16T17:16:05.425Z,16.65
2022-11-16T17:18:31.807Z,16.48
2022-11-16T17:21:04.377Z,19.17
2022-11-16T17:25:57.207Z,16.48
2022-11-16T17:28:23.586Z,20.67
2022-11-16T17:30:49.985Z,20.83
2022-11-16T17:33:16.384Z,20.75
2022-11-16T17:35:42.773Z,19.02
2022-11-16T17:38:09.877Z,19.92
2022-11-16T17:40:36.532Z,29.52
2022-11-16T17:43:03.187Z,29.70
2022-11-16T17:45:29.648Z,22.33
2022-11-16T17:47:56.027Z,22.63
2022-11-16T17:50:22.429Z,30.77
2022-11-16T17:52:48.792Z,34.08
2022-11-16T17:55:15.229Z,22.60
2022-11-16T17:57:41.603Z,24.58
2022-11-16T18:00:09.051Z,27.85
2022-11-16T18:02:35.428Z,24.15
2022-11-16T18:05:01.834Z,21.45
2022-11-16T18:07:30.140Z,21.88
2022-11-16T18:09:56.674Z,22.10
2022-11-16T18:12:23.170Z,23.30
2022-11-16T18:15:13.491Z,23.67
2022-11-16T18:17:36.253Z,27.92
2022-11-16T18:20:04.703Z,25.88
2022-11-16T18:22:31.097Z,22.98
2022-11-16T18:24:57.490Z,26.38
2022-11-16T18:27:23.904Z,25.25
2022-11-16T18:29:50.307Z,25.85
2022-11-16T18:32:16.769Z,26.98
2022-11-16T18:34:43.300Z,26.27
2022-11-16T18:37:09.674Z,28.25
2022-11-16T18:39:36.107Z,31.05
2022-11-16T18:42:02.510Z,25.55
2022-11-16T18:44:28.911Z,25.50
2022-11-16T18:46:55.370Z,24.42
2022-11-16T18:49:21.785Z,26.50
2022-11-16T18:51:48.209Z,25.70
2022-11-16T18:54:14.583Z,25.75
2022-11-16T18:56:40.971Z,23.92
2022-11-16T18:59:07.433Z,24.80
2022-11-16T19:01:34.174Z,24.83
2022-11-16T19:04:00.701Z,23.90
2022-11-16T19:06:27.206Z,21.13
2022-11-16T19:08:56.360Z,20.65
2022-11-16T19:11:23.775Z,23.45
2022-11-16T19:13:59.880Z,24.50
2022-11-16T19:16:26.698Z,25.30
2022-11-16T19:18:53.125Z,24.10
2022-11-16T19:21:19.606Z,28.77
2022-11-16T19:23:48.260Z,28.65
2022-11-16T19:26:16.048Z,24.00
2022-11-16T19:28:45.309Z,23.10
2022-11-16T19:31:14.576Z,26.52
2022-11-16T19:33:41.365Z,23.65
2022-11-16T19:36:09.556Z,23.85
2022-11-16T19:38:36.335Z,22.83
2022-11-16T19:41:03.047Z,25.92
2022-11-16T19:43:29.567Z,23.65
2022-11-16T19:45:55.950Z,25.35
2022-11-16T19:48:22.332Z,25.38
2022-11-16T19:50:48.709Z,26.65
2022-11-16T19:53:15.081Z,29.90
2022-11-16T19:55:41.730Z,24.77
2022-11-16T19:58:08.085Z,25.67
2022-11-16T20:00:34.488Z,24.45
2022-11-16T20:03:00.941Z,27.42
2022-11-16T20:05:29.903Z,25.30
2022-11-16T20:07:56.265Z,26.20
2022-11-16T20:10:22.640Z,26.92
2022-11-16T20:12:49.635Z,27.55
2022-11-16T20:15:16.119Z,28.83
2022-11-16T20:17:42.588Z,31.40
2022-11-16T20:20:09.367Z,27.75
2022-11-16T20:22:35.796Z,28.10
2022-11-16T20:25:02.196Z,27.45
2022-11-16T20:27:28.576Z,29.25
2022-11-16T20:29:54.970Z,28.83
2022-11-16T20:32:21.643Z,26.85
2022-11-16T20:34:48.027Z,29.40
2022-11-16T20:37:14.931Z,26.20
2022-11-16T20:39:42.227Z,27.63
2022-11-16T20:42:08.621Z,28.02
2022-11-16T20:44:34.972Z,28.67
2022-11-16T20:47:01.348Z,28.33
2022-11-16T20:49:27.749Z,28.58
2022-11-16T20:51:54.214Z,26.20
2022-11-16T20:54:20.661Z,27.63
2022-11-16T20:56:49.477Z,27.58
2022-11-16T20:59:16.221Z,24.40
2022-11-16T21:01:47.590Z,24.75
2022-11-16T21:04:15.097Z,25.80
2022-11-16T21:06:41.496Z,27.85
2022-11-16T21:09:07.919Z,25.10
2022-11-16T21:11:52.967Z,28.30
2022-11-16T21:14:20.019Z,31.27
2022-11-16T21:16:46.441Z,26.00
2022-11-16T21:19:12.830Z,26.27
2022-11-16T21:21:40.715Z,27.20
2022-11-16T21:24:10.559Z,32.33
2022-11-16T21:26:37.407Z,29.00
2022-11-16T21:29:03.951Z,28.58
2022-11-16T21:31:32.179Z,29.15
2022-11-16T21:34:00.688Z,33.92
2022-11-16T21:36:28.403Z,26.95
2022-11-16T21:38:55.437Z,28.20
2022-11-16T21:41:23.009Z,29.05
2022-11-16T21:43:49.468Z,29.15
2022-11-16T21:46:18.142Z,25.65
2022-11-16T21:48:44.935Z,28.30
2022-11-16T21:51:16.332Z,26.95
2022-11-16T21:53:43.005Z,25.20
2022-11-16T21:56:20.467Z,26.80
2022-11-16T21:58:46.923Z,30.00
2022-11-16T22:01:15.570Z,28.35
2022-11-16T22:03:42.093Z,26.42
2022-11-16T22:06:31.791Z,28.50
2022-11-16T22:08:58.413Z,30.85
2022-11-16T22:11:24.902Z,27.65
2022-11-16T22:13:51.451Z,29.25
2022-11-16T22:16:20.903Z,28.63
2022-11-16T22:18:47.404Z,27.00
2022-11-16T22:21:13.817Z,26.88
2022-11-16T22:23:40.689Z,29.83
2022-11-16T22:26:09.771Z,28.00
2022-11-16T22:28:37.270Z,31.08
2022-11-16T22:31:08.142Z,26.35
2022-11-16T22:33:35.074Z,30.45
2022-11-16T22:36:02.051Z,28.52
2022-11-16T22:38:28.485Z,30.33
2022-11-16T22:40:56.370Z,30.75
2022-11-16T22:43:24.961Z,31.27
2022-11-16T22:45:51.371Z,29.63
2022-11-16T22:48:17.879Z,29.27
2022-11-16T22:50:44.334Z,32.15
2022-11-16T22:53:10.798Z,33.13
2022-11-16T22:55:38.091Z,30.15
2022-11-16T22:58:05.450Z,30.02
2022-11-16T23:00:36.237Z,31.63
2022-11-16T23:03:05.558Z,28.40
2022-11-16T23:05:31.956Z,29.80
2022-11-16T23:07:58.438Z,25.60
2022-11-16T23:10:24.871Z,25.95
2022-11-16T23:13:09.762Z,25.77
2022-11-16T23:16:05.316Z,27.75
2022-11-16T23:18:32.819Z,23.77
2022-11-16T23:21:17.473Z,25.60
2022-11-16T23:24:02.227Z,24.52
2022-11-16T23:26:47.018Z,22.58
2022-11-16T23:29:13.470Z,25.98
2022-11-16T23:31:39.857Z,24.35
2022-11-16T23:34:06.273Z,22.45
2022-11-16T23:36:32.793Z,23.40
2022-11-16T23:38:59.160Z,22.38
2022-11-16T23:41:44.115Z,25.15
2022-11-16T23:44:10.680Z,24.90
2022-11-16T23:46:37.056Z,23.25
2022-11-16T23:49:03.411Z,24.50
2022-11-16T23:51:29.808Z,25.80
2022-11-16T23:53:56.361Z,24.23
2022-11-16T23:56:23.287Z,24.30
2022-11-16T23:58:49.779Z,25.55
